Time;durP1;ratioP1;P1;durP2;ratioP2;P2;SDS_P1;SDS_P2;PMS_P1;PMS_P2;Temp;Humidity;BMP_temperature;BMP_pressure;BME280_temperature;BME280_humidity;BME280_pressure;Samples;Min_cycle;Max_cycle;Signal;HPM_P1;HPM_P2
2021/05/26 00:01:05;;;;;;;2.00;0.77;;;;;;;;;;5012836;28;20706;-71
2021/05/26 00:03:32;;;;;;;1.27;0.40;;;;;;;;;;5012904;28;20053;-71
2021/05/26 00:05:59;;;;;;;1.23;0.50;;;;;;;;;;5012691;28;20058;-71
2021/05/26 00:08:32;;;;;;;1.58;0.57;;;;;;;;;;5012660;28;20432;-71
2021/05/26 00:11:01;;;;;;;1.20;0.55;;;;;;;;;;5012793;28;20481;-71
2021/05/26 00:13:27;;;;;;;2.47;0.75;;;;;;;;;;5012480;28;20101;-71
2021/05/26 00:15:54;;;;;;;2.17;0.80;;;;;;;;;;5012470;28;20049;-71
2021/05/26 00:18:22;;;;;;;1.42;0.50;;;;;;;;;;5012514;28;20056;-71
2021/05/26 00:20:49;;;;;;;6.55;1.92;;;;;;;;;;5012634;28;20058;-71
2021/05/26 00:23:15;;;;;;;1.95;0.50;;;;;;;;;;5012434;28;20050;-71
2021/05/26 00:25:42;;;;;;;0.95;0.50;;;;;;;;;;5012257;28;20085;-71
2021/05/26 00:28:09;;;;;;;3.35;1.15;;;;;;;;;;5012468;28;20096;-71
2021/05/26 00:30:43;;;;;;;2.85;0.45;;;;;;;;;;5012251;28;20089;-71
2021/05/26 00:33:09;;;;;;;1.17;0.50;;;;;;;;;;5011818;28;20050;-71
2021/05/26 00:35:36;;;;;;;1.45;0.65;;;;;;;;;;5012111;28;20085;-71
2021/05/26 00:38:03;;;;;;;2.83;0.75;;;;;;;;;;5012273;28;20050;-71
2021/05/26 00:40:30;;;;;;;3.47;0.60;;;;;;;;;;5011905;28;20082;-71
2021/05/26 00:42:56;;;;;;;2.30;0.80;;;;;;;;;;5012052;28;20092;-71
2021/05/26 00:45:23;;;;;;;2.80;0.80;;;;;;;;;;5011771;28;20081;-71
2021/05/26 00:47:50;;;;;;;5.97;0.75;;;;;;;;;;5012270;28;20045;-71
2021/05/26 00:50:22;;;;;;;2.63;0.80;;;;;;;;;;5012052;28;20054;-70
2021/05/26 00:52:57;;;;;;;1.73;0.80;;;;;;;;;;5012341;28;20134;-71
2021/05/26 00:55:24;;;;;;;3.65;0.93;;;;;;;;;;5026539;28;20084;-71
2021/05/26 00:57:51;;;;;;;2.78;0.80;;;;;;;;;;5011823;28;20455;-71
2021/05/26 01:00:19;;;;;;;0.75;0.40;;;;;;;;;;5011872;28;20057;-71
2021/05/26 01:02:46;;;;;;;3.00;0.68;;;;;;;;;;5012052;28;20084;-71
2021/05/26 01:05:13;;;;;;;2.80;0.80;;;;;;;;;;5011775;28;20058;-71
2021/05/26 01:07:41;;;;;;;3.42;0.70;;;;;;;;;;5027023;28;20108;-71
2021/05/26 01:10:09;;;;;;;2.22;0.57;;;;;;;;;;5011832;28;20112;-71
2021/05/26 01:12:36;;;;;;;3.03;0.55;;;;;;;;;;5011683;28;20081;-71
2021/05/26 01:15:05;;;;;;;2.90;0.47;;;;;;;;;;5011812;28;20057;-71
2021/05/26 01:17:34;;;;;;;2.17;0.50;;;;;;;;;;5011842;28;20089;-70
2021/05/26 01:20:02;;;;;;;1.45;0.40;;;;;;;;;;5011893;28;20081;-70
2021/05/26 01:22:29;;;;;;;0.98;0.65;;;;;;;;;;5011767;28;20074;-71
2021/05/26 01:24:56;;;;;;;2.45;0.65;;;;;;;;;;5011651;28;20050;-71
2021/05/26 01:27:22;;;;;;;4.20;0.90;;;;;;;;;;5011591;28;20080;-71
2021/05/26 01:29:50;;;;;;;2.38;0.70;;;;;;;;;;5011935;28;20077;-71
2021/05/26 01:32:17;;;;;;;3.33;0.90;;;;;;;;;;5026618;28;20088;-71
2021/05/26 01:34:44;;;;;;;2.90;0.82;;;;;;;;;;5011954;28;20124;-70
2021/05/26 01:37:10;;;;;;;3.03;0.73;;;;;;;;;;5011547;28;20046;-70
2021/05/26 01:39:37;;;;;;;3.28;0.50;;;;;;;;;;5011770;28;20081;-71
2021/05/26 01:42:04;;;;;;;2.08;0.60;;;;;;;;;;5011536;28;20587;-71
2021/05/26 01:44:34;;;;;;;3.38;0.93;;;;;;;;;;5011778;28;20085;-70
2021/05/26 01:47:01;;;;;;;1.58;0.60;;;;;;;;;;5015183;28;20050;-71
2021/05/26 01:49:28;;;;;;;4.28;0.90;;;;;;;;;;5015407;28;20481;-70
2021/05/26 01:51:54;;;;;;;3.03;0.80;;;;;;;;;;5015303;28;20081;-71
2021/05/26 01:54:21;;;;;;;0.85;0.45;;;;;;;;;;5015236;28;20513;-71
2021/05/26 01:56:47;;;;;;;3.33;0.70;;;;;;;;;;5014995;28;20045;-70
2021/05/26 01:59:14;;;;;;;4.55;0.73;;;;;;;;;;5015148;28;20084;-71
2021/05/26 02:01:41;;;;;;;2.42;0.77;;;;;;;;;;5015250;28;20050;-71
2021/05/26 02:04:07;;;;;;;1.65;0.73;;;;;;;;;;5015166;28;20497;-71
2021/05/26 02:06:34;;;;;;;3.58;0.93;;;;;;;;;;5030035;28;20042;-71
2021/05/26 02:09:01;;;;;;;1.80;0.85;;;;;;;;;;5013994;28;20057;-71
2021/05/26 02:14:12;;;;;;;2.47;0.50;;;;;;;;;;5014000;28;20589;-71
2021/05/26 02:16:39;;;;;;;3.35;0.60;;;;;;;;;;5014495;28;20089;-70
2021/05/26 02:19:06;;;;;;;2.20;0.60;;;;;;;;;;5013669;28;20108;-70
2021/05/26 02:21:32;;;;;;;2.92;0.50;;;;;;;;;;5014726;28;20085;-71
2021/05/26 02:23:59;;;;;;;3.72;0.70;;;;;;;;;;5014848;28;20082;-71
2021/05/26 02:26:25;;;;;;;6.00;0.80;;;;;;;;;;5024264;23;20066;-71
2021/05/26 02:28:52;;;;;;;6.40;1.17;;;;;;;;;;4995051;28;20088;-71
2021/05/26 02:31:18;;;;;;;4.40;0.70;;;;;;;;;;5009945;28;20412;-72
2021/05/26 02:33:45;;;;;;;3.40;0.57;;;;;;;;;;5009866;28;20050;-71
2021/05/26 02:36:11;;;;;;;2.67;0.68;;;;;;;;;;5009617;28;20101;-72
2021/05/26 02:38:38;;;;;;;3.92;0.65;;;;;;;;;;4994882;28;20058;-71
2021/05/26 02:41:05;;;;;;;5.60;0.80;;;;;;;;;;4994930;28;20104;-72
2021/05/26 02:43:31;;;;;;;3.22;0.80;;;;;;;;;;4994547;28;20046;-71
2021/05/26 02:45:58;;;;;;;1.50;0.80;;;;;;;;;;4994417;28;20054;-71
2021/05/26 02:48:24;;;;;;;1.02;0.60;;;;;;;;;;4998793;28;20101;-72
2021/05/26 02:50:51;;;;;;;3.45;1.10;;;;;;;;;;4994664;28;20046;-72
2021/05/26 02:53:17;;;;;;;1.17;0.60;;;;;;;;;;4993319;28;20051;-72
2021/05/26 02:55:44;;;;;;;4.53;0.90;;;;;;;;;;4999432;28;20102;-74
2021/05/26 02:58:10;;;;;;;1.77;0.55;;;;;;;;;;4973762;28;20047;-75
2021/05/26 03:00:38;;;;;;;2.97;0.60;;;;;;;;;;4974988;28;20130;-74
2021/05/26 03:03:05;;;;;;;2.60;0.60;;;;;;;;;;4975229;28;20402;-75
2021/05/26 03:05:31;;;;;;;3.25;0.80;;;;;;;;;;4989649;28;20051;-74
2021/05/26 03:07:58;;;;;;;3.30;0.60;;;;;;;;;;4989876;28;20046;-74
2021/05/26 03:10:24;;;;;;;0.77;0.57;;;;;;;;;;4975050;28;20109;-75
2021/05/26 03:12:51;;;;;;;2.83;1.05;;;;;;;;;;4989798;28;20070;-74
2021/05/26 03:15:18;;;;;;;5.00;1.02;;;;;;;;;;4992936;28;20054;-75
2021/05/26 03:17:45;;;;;;;1.30;0.50;;;;;;;;;;5009066;28;20054;-74
2021/05/26 03:20:14;;;;;;;1.23;0.60;;;;;;;;;;4993128;28;20050;-73
2021/05/26 03:22:41;;;;;;;3.13;0.57;;;;;;;;;;5008985;28;20049;-74
2021/05/26 03:25:09;;;;;;;2.33;0.77;;;;;;;;;;4992186;28;20085;-74
2021/05/26 03:27:38;;;;;;;2.67;0.65;;;;;;;;;;4989252;28;20055;-74
2021/05/26 03:30:08;;;;;;;1.73;0.60;;;;;;;;;;4989344;28;20496;-74
2021/05/26 03:32:36;;;;;;;1.52;0.98;;;;;;;;;;4989120;28;20489;-74
2021/05/26 03:35:04;;;;;;;6.43;2.08;;;;;;;;;;5005552;28;20101;-74
2021/05/26 03:37:31;;;;;;;1.98;0.50;;;;;;;;;;4992144;28;20463;-74
2021/05/26 03:39:58;;;;;;;4.15;1.02;;;;;;;;;;4994684;28;20062;-74
2021/05/26 03:42:25;;;;;;;3.38;0.70;;;;;;;;;;5002159;28;20050;-74
2021/05/26 03:44:53;;;;;;;3.15;0.82;;;;;;;;;;4987449;28;20082;-74
2021/05/26 03:47:19;;;;;;;1.70;0.80;;;;;;;;;;4972852;28;20051;-74
2021/05/26 03:49:46;;;;;;;1.98;0.90;;;;;;;;;;4989290;28;20095;-73
2021/05/26 03:52:12;;;;;;;6.50;1.85;;;;;;;;;;4989127;28;20101;-74
2021/05/26 03:54:39;;;;;;;2.50;0.75;;;;;;;;;;4985438;28;20050;-74
2021/05/26 03:57:06;;;;;;;9.43;1.35;;;;;;;;;;5008207;28;20051;-74
2021/05/26 03:59:32;;;;;;;1.85;0.60;;;;;;;;;;5008385;28;20104;-74
2021/05/26 04:01:59;;;;;;;3.47;0.85;;;;;;;;;;4992216;28;20046;-74
2021/05/26 04:04:26;;;;;;;3.80;1.08;;;;;;;;;;4998462;28;20560;-74
2021/05/26 04:06:53;;;;;;;3.80;0.90;;;;;;;;;;4973482;28;20055;-74
2021/05/26 04:09:20;;;;;;;5.43;1.25;;;;;;;;;;4972648;28;20050;-73
2021/05/26 04:11:47;;;;;;;2.67;0.98;;;;;;;;;;4988587;28;20105;-74
2021/05/26 04:14:14;;;;;;;2.80;0.88;;;;;;;;;;4980780;28;20046;-73
2021/05/26 04:16:41;;;;;;;3.95;0.80;;;;;;;;;;5008072;28;20480;-74
2021/05/26 04:19:08;;;;;;;3.70;0.80;;;;;;;;;;4993067;28;20468;-74
2021/05/26 04:21:34;;;;;;;2.30;0.75;;;;;;;;;;4991887;28;20058;-74
2021/05/26 04:24:01;;;;;;;1.77;1.00;;;;;;;;;;5008238;28;20050;-74
2021/05/26 04:26:28;;;;;;;4.95;1.35;;;;;;;;;;4991337;28;20057;-75
2021/05/26 04:28:54;;;;;;;5.75;1.15;;;;;;;;;;4975830;28;20501;-74
2021/05/26 04:31:22;;;;;;;3.67;0.93;;;;;;;;;;4991687;28;20521;-74
2021/05/26 04:33:49;;;;;;;2.00;0.80;;;;;;;;;;4991596;28;20047;-74
2021/05/26 04:36:15;;;;;;;4.55;0.80;;;;;;;;;;4992416;28;20054;-74
2021/05/26 04:38:42;;;;;;;3.47;0.95;;;;;;;;;;5007821;28;20505;-74
2021/05/26 04:41:12;;;;;;;5.70;1.42;;;;;;;;;;5007515;28;20500;-75
2021/05/26 04:43:38;;;;;;;4.20;1.10;;;;;;;;;;4992621;28;20101;-74
2021/05/26 04:46:05;;;;;;;3.42;1.08;;;;;;;;;;4991279;28;20567;-72
2021/05/26 04:48:31;;;;;;;4.03;0.95;;;;;;;;;;4992733;28;20397;-74
2021/05/26 04:50:58;;;;;;;3.13;1.00;;;;;;;;;;4982717;28;20310;-74
2021/05/26 04:53:24;;;;;;;2.80;0.80;;;;;;;;;;4982857;28;20039;-73
2021/05/26 04:55:51;;;;;;;2.47;0.90;;;;;;;;;;4966570;28;20405;-74
2021/05/26 04:58:18;;;;;;;4.70;1.20;;;;;;;;;;4982618;28;20181;-74
2021/05/26 05:00:44;;;;;;;2.83;0.82;;;;;;;;;;4973232;28;20054;-73
2021/05/26 05:03:11;;;;;;;3.17;1.10;;;;;;;;;;4973103;28;20465;-73
2021/05/26 05:05:37;;;;;;;2.78;0.68;;;;;;;;;;4971932;28;20204;-73
2021/05/26 05:08:06;;;;;;;5.40;1.50;;;;;;;;;;4972874;28;20398;-73
2021/05/26 05:10:33;;;;;;;2.70;1.00;;;;;;;;;;4971958;28;20055;-74
2021/05/26 05:13:00;;;;;;;3.40;0.95;;;;;;;;;;4971518;28;20133;-73
2021/05/26 05:15:27;;;;;;;3.08;0.77;;;;;;;;;;4971637;28;20054;-74
2021/05/26 05:17:54;;;;;;;3.55;0.93;;;;;;;;;;4987808;28;20094;-73
2021/05/26 05:20:22;;;;;;;2.33;0.95;;;;;;;;;;4958739;28;20054;-73
2021/05/26 05:22:49;;;;;;;4.97;1.83;;;;;;;;;;4975714;28;20555;-73
2021/05/26 05:25:16;;;;;;;4.15;1.10;;;;;;;;;;4978471;28;20046;-74
2021/05/26 05:27:42;;;;;;;4.25;1.40;;;;;;;;;;4977096;28;20113;-74
2021/05/26 05:30:10;;;;;;;3.17;1.20;;;;;;;;;;4991837;28;20051;-74
2021/05/26 05:32:36;;;;;;;1.95;0.85;;;;;;;;;;5005090;28;20467;-74
2021/05/26 05:35:05;;;;;;;2.30;1.08;;;;;;;;;;4996247;28;20092;-75
2021/05/26 05:37:31;;;;;;;3.17;1.30;;;;;;;;;;4978794;28;20065;-74
2021/05/26 05:39:59;;;;;;;3.13;0.88;;;;;;;;;;4994891;28;20116;-74
2021/05/26 05:42:27;;;;;;;3.13;1.00;;;;;;;;;;4979001;28;20054;-74
2021/05/26 05:44:54;;;;;;;2.55;1.88;;;;;;;;;;4978981;28;20050;-75
2021/05/26 05:47:21;;;;;;;3.85;0.90;;;;;;;;;;4995758;28;20425;-74
2021/05/26 05:49:48;;;;;;;4.38;1.35;;;;;;;;;;5011027;28;20078;-74
2021/05/26 05:52:15;;;;;;;3.03;1.38;;;;;;;;;;4986911;28;20079;-74
2021/05/26 05:54:42;;;;;;;2.83;1.33;;;;;;;;;;4975160;28;20062;-74
2021/05/26 05:57:08;;;;;;;8.25;1.30;;;;;;;;;;4976772;28;20051;-75
2021/05/26 05:59:35;;;;;;;3.33;1.00;;;;;;;;;;4994247;28;20046;-74
2021/05/26 06:02:01;;;;;;;5.25;1.10;;;;;;;;;;4994553;28;20125;-74
2021/05/26 06:04:28;;;;;;;5.78;1.10;;;;;;;;;;5010645;28;20070;-74
2021/05/26 06:06:55;;;;;;;3.65;1.20;;;;;;;;;;4997893;28;20485;-74
2021/05/26 06:09:22;;;;;;;5.53;1.30;;;;;;;;;;4992796;28;20085;-75
2021/05/26 06:11:48;;;;;;;4.93;1.83;;;;;;;;;;4977736;28;20047;-74
2021/05/26 06:14:18;;;;;;;6.88;1.42;;;;;;;;;;4984448;28;20511;-72
2021/05/26 06:16:45;;;;;;;4.25;1.33;;;;;;;;;;4992108;28;20560;-73
2021/05/26 06:19:12;;;;;;;2.40;1.10;;;;;;;;;;4972806;28;20082;-72
2021/05/26 06:21:39;;;;;;;4.18;1.42;;;;;;;;;;4997958;28;20051;-72
2021/05/26 06:24:06;;;;;;;5.22;1.10;;;;;;;;;;4991889;28;20096;-72
2021/05/26 06:26:33;;;;;;;5.13;1.30;;;;;;;;;;4988752;28;20059;-72
2021/05/26 06:29:00;;;;;;;7.72;1.23;;;;;;;;;;4977577;28;20058;-72
2021/05/26 06:31:27;;;;;;;3.47;1.40;;;;;;;;;;4987202;28;20101;-71
2021/05/26 06:33:53;;;;;;;8.02;2.80;;;;;;;;;;4988438;28;20082;-72
2021/05/26 06:36:24;;;;;;;3.22;1.67;;;;;;;;;;4983534;28;20452;-73
2021/05/26 06:38:51;;;;;;;5.07;1.77;;;;;;;;;;4986174;28;20101;-72
2021/05/26 06:41:17;;;;;;;5.28;1.90;;;;;;;;;;4988071;28;20055;-72
2021/05/26 06:43:44;;;;;;;3.97;1.73;;;;;;;;;;4973623;28;20054;-72
2021/05/26 06:46:11;;;;;;;2.78;1.45;;;;;;;;;;4984601;28;20086;-72
2021/05/26 06:48:37;;;;;;;2.70;1.10;;;;;;;;;;4984226;28;20129;-73
2021/05/26 06:51:04;;;;;;;3.55;2.00;;;;;;;;;;4974399;28;20054;-72
2021/05/26 06:53:31;;;;;;;6.57;1.40;;;;;;;;;;5007445;28;20125;-73
2021/05/26 06:55:57;;;;;;;2.75;1.13;;;;;;;;;;4975854;28;20551;-73
2021/05/26 06:58:24;;;;;;;4.90;1.42;;;;;;;;;;4991718;28;20108;-73
2021/05/26 07:00:50;;;;;;;4.72;1.30;;;;;;;;;;4972418;28;20411;-73
2021/05/26 07:03:17;;;;;;;2.50;1.30;;;;;;;;;;4989639;28;20055;-73
2021/05/26 07:05:44;;;;;;;5.30;1.20;;;;;;;;;;4978579;28;20046;-73
2021/05/26 07:08:10;;;;;;;3.15;1.98;;;;;;;;;;4990719;28;20097;-73
2021/05/26 07:10:39;;;;;;;2.85;1.30;;;;;;;;;;4972794;28;20078;-75
2021/05/26 07:13:06;;;;;;;6.72;1.38;;;;;;;;;;4991426;28;20510;-74
2021/05/26 07:15:33;;;;;;;4.05;1.52;;;;;;;;;;4971592;28;20054;-74
2021/05/26 07:18:04;;;;;;;4.53;2.08;;;;;;;;;;4971793;28;20276;-73
2021/05/26 07:20:32;;;;;;;3.30;1.20;;;;;;;;;;4988921;28;20054;-73
2021/05/26 07:22:59;;;;;;;5.10;1.10;;;;;;;;;;5006980;28;20571;-72
2021/05/26 07:25:26;;;;;;;2.90;1.30;;;;;;;;;;4982460;28;20051;-71
2021/05/26 07:27:53;;;;;;;3.33;1.80;;;;;;;;;;4971320;28;20055;-73
2021/05/26 07:30:20;;;;;;;3.50;1.50;;;;;;;;;;4971350;28;20059;-70
2021/05/26 07:32:50;;;;;;;3.55;1.70;;;;;;;;;;4998726;28;20047;-71
2021/05/26 07:35:17;;;;;;;5.80;1.15;;;;;;;;;;4966470;28;20869;-74
2021/05/26 07:37:44;;;;;;;5.45;1.20;;;;;;;;;;4998683;28;20054;-72
2021/05/26 07:40:12;;;;;;;4.18;1.40;;;;;;;;;;4991258;28;20050;-70
2021/05/26 07:42:39;;;;;;;7.70;1.70;;;;;;;;;;4983314;28;20058;-72
2021/05/26 07:45:07;;;;;;;4.25;1.60;;;;;;;;;;4954043;28;20059;-70
2021/05/26 07:47:34;;;;;;;6.40;1.52;;;;;;;;;;4978723;28;20050;-70
2021/05/26 07:50:03;;;;;;;5.70;1.95;;;;;;;;;;4975288;28;20417;-70
2021/05/26 07:52:30;;;;;;;4.82;1.70;;;;;;;;;;4997142;28;20460;-73
2021/05/26 07:54:58;;;;;;;4.30;1.13;;;;;;;;;;4981674;28;20051;-71
2021/05/26 07:57:24;;;;;;;4.82;1.45;;;;;;;;;;4974834;28;20104;-72
2021/05/26 07:59:51;;;;;;;2.75;1.48;;;;;;;;;;4990729;28;20046;-73
2021/05/26 08:02:18;;;;;;;5.28;1.50;;;;;;;;;;4985802;28;20077;-69
2021/05/26 08:04:44;;;;;;;4.28;2.35;;;;;;;;;;4989386;28;20055;-69
2021/05/26 08:07:11;;;;;;;4.40;1.67;;;;;;;;;;4991627;28;20492;-71
2021/05/26 08:09:39;;;;;;;5.28;1.42;;;;;;;;;;4983742;28;20049;-69
2021/05/26 08:12:08;;;;;;;5.32;1.77;;;;;;;;;;4990629;28;20596;-69
2021/05/26 08:14:36;;;;;;;5.57;2.53;;;;;;;;;;4997084;28;20447;-69
2021/05/26 08:17:04;;;;;;;7.47;1.90;;;;;;;;;;4991847;28;20112;-72
2021/05/26 08:19:31;;;;;;;5.28;2.08;;;;;;;;;;4964708;28;20086;-75
2021/05/26 08:21:57;;;;;;;7.05;1.92;;;;;;;;;;4978395;28;20058;-74
2021/05/26 08:24:24;;;;;;;5.95;1.30;;;;;;;;;;4976616;28;20077;-72
2021/05/26 08:26:51;;;;;;;5.65;1.50;;;;;;;;;;4987031;28;20046;-72
2021/05/26 08:29:18;;;;;;;2.72;1.25;;;;;;;;;;5033087;22;20045;-71
2021/05/26 08:31:45;;;;;;;3.03;1.20;;;;;;;;;;5021771;28;20072;-74
2021/05/26 08:34:11;;;;;;;6.30;1.40;;;;;;;;;;5016445;28;20057;-73
2021/05/26 08:36:38;;;;;;;4.43;1.60;;;;;;;;;;5036735;28;20053;-73
2021/05/26 08:39:05;;;;;;;4.50;1.40;;;;;;;;;;5024080;28;20050;-74
2021/05/26 08:41:32;;;;;;;3.47;1.20;;;;;;;;;;5037054;28;20064;-71
2021/05/26 08:44:02;;;;;;;2.53;1.20;;;;;;;;;;5021270;28;20046;-70
2021/05/26 08:46:29;;;;;;;5.65;1.65;;;;;;;;;;5022487;28;20093;-71
2021/05/26 08:48:57;;;;;;;4.57;2.10;;;;;;;;;;5023440;28;20651;-71
2021/05/26 08:51:24;;;;;;;4.57;1.20;;;;;;;;;;5002849;28;20046;-71
2021/05/26 08:53:51;;;;;;;4.10;1.30;;;;;;;;;;5008627;28;20042;-71
2021/05/26 08:56:17;;;;;;;6.68;1.30;;;;;;;;;;5019166;28;20081;-71
2021/05/26 08:58:44;;;;;;;1.65;1.00;;;;;;;;;;5020498;28;20095;-71
2021/05/26 09:01:13;;;;;;;6.57;2.42;;;;;;;;;;5021010;28;20141;-70
2021/05/26 09:03:41;;;;;;;4.57;1.38;;;;;;;;;;5023778;28;20119;-71
2021/05/26 09:06:11;;;;;;;3.20;1.20;;;;;;;;;;5019597;28;20078;-71
2021/05/26 09:08:51;;;;;;;3.22;1.42;;;;;;;;;;5020491;28;20049;-71
2021/05/26 09:11:33;;;;;;;4.30;1.23;;;;;;;;;;5016222;28;20077;-70
2021/05/26 09:14:32;;;;;;;5.13;1.70;;;;;;;;;;5012019;28;20050;-71
2021/05/26 09:17:08;;;;;;;3.05;1.45;;;;;;;;;;5026511;28;20078;-72
2021/05/26 09:19:36;;;;;;;2.17;1.17;;;;;;;;;;5009449;28;20504;-72
2021/05/26 09:22:09;;;;;;;3.92;1.73;;;;;;;;;;4992398;28;20104;-71
2021/05/26 09:24:36;;;;;;;2.28;1.20;;;;;;;;;;4992390;28;20082;-71
2021/05/26 09:27:05;;;;;;;4.88;1.27;;;;;;;;;;4992321;28;20054;-70
2021/05/26 09:29:36;;;;;;;3.70;1.63;;;;;;;;;;5002774;28;20081;-71
2021/05/26 09:32:31;;;;;;;2.67;1.02;;;;;;;;;;4992200;28;20121;-71
2021/05/26 09:34:59;;;;;;;3.67;0.98;;;;;;;;;;4995417;28;20049;-71
2021/05/26 09:37:30;;;;;;;3.88;1.20;;;;;;;;;;5012633;28;20076;-70
2021/05/26 09:40:10;;;;;;;3.83;1.20;;;;;;;;;;5017696;28;20097;-69
2021/05/26 09:42:45;;;;;;;2.28;1.13;;;;;;;;;;5018503;28;20050;-69
2021/05/26 09:45:27;;;;;;;4.30;1.25;;;;;;;;;;5017737;28;20045;-69
2021/05/26 09:48:14;;;;;;;3.90;1.27;;;;;;;;;;5017644;28;20578;-70
2021/05/26 09:50:40;;;;;;;3.38;1.10;;;;;;;;;;5019328;28;20125;-70
2021/05/26 09:53:09;;;;;;;4.25;1.30;;;;;;;;;;5022786;28;20103;-71
2021/05/26 09:55:37;;;;;;;2.72;1.00;;;;;;;;;;4993073;28;20082;-73
2021/05/26 09:58:05;;;;;;;1.25;0.85;;;;;;;;;;5022404;28;20081;-71
2021/05/26 10:00:33;;;;;;;2.35;0.90;;;;;;;;;;5019048;28;20419;-72
2021/05/26 10:02:59;;;;;;;4.25;0.90;;;;;;;;;;5019101;28;20532;-75
2021/05/26 10:05:42;;;;;;;6.25;1.20;;;;;;;;;;5005487;28;20444;-77
2021/05/26 10:08:45;;;;;;;5.40;1.13;;;;;;;;;;4993546;28;20556;-75
2021/05/26 10:11:15;;;;;;;4.22;1.23;;;;;;;;;;5024368;28;20053;-75
2021/05/26 10:13:42;;;;;;;2.63;1.20;;;;;;;;;;5015080;28;20072;-73
2021/05/26 10:16:21;;;;;;;2.65;1.00;;;;;;;;;;5014262;28;20536;-74
2021/05/26 10:18:51;;;;;;;2.28;0.80;;;;;;;;;;5028672;28;20049;-73
2021/05/26 10:21:21;;;;;;;1.20;0.70;;;;;;;;;;5008631;28;20100;-73
2021/05/26 10:23:54;;;;;;;0.90;0.40;;;;;;;;;;4990552;28;20084;-73
2021/05/26 10:26:51;;;;;;;;;;;;;;;;;;5000313;28;20091;-73
2021/05/26 10:29:33;;;;;;;3.33;0.80;;;;;;;;;;5025172;28;19991;-73
2021/05/26 10:32:08;;;;;;;1.98;0.77;;;;;;;;;;5022158;28;20508;-74
2021/05/26 10:34:46;;;;;;;1.55;0.63;;;;;;;;;;5000335;28;20065;-73
2021/05/26 10:37:33;;;;;;;2.53;0.50;;;;;;;;;;5026509;28;20073;-76
2021/05/26 10:40:01;;;;;;;1.85;0.60;;;;;;;;;;5025360;28;20141;-74
2021/05/26 10:42:31;;;;;;;1.13;0.60;;;;;;;;;;5019308;28;20581;-74
2021/05/26 10:44:58;;;;;;;1.63;0.70;;;;;;;;;;5023572;28;20508;-73
2021/05/26 10:47:37;;;;;;;2.20;0.50;;;;;;;;;;5018535;28;20054;-74
2021/05/26 10:50:16;;;;;;;1.45;0.70;;;;;;;;;;5021202;28;20057;-74
2021/05/26 10:52:56;;;;;;;2.63;0.80;;;;;;;;;;5024034;28;20108;-74
2021/05/26 10:55:44;;;;;;;0.52;0.40;;;;;;;;;;5023182;28;20496;-74
2021/05/26 10:58:36;;;;;;;1.10;0.68;;;;;;;;;;5039169;28;20077;-74
2021/05/26 11:01:05;;;;;;;2.15;1.15;;;;;;;;;;5022058;28;20054;-74
2021/05/26 11:03:36;;;;;;;0.80;0.50;;;;;;;;;;5020623;28;20466;-73
2021/05/26 11:06:04;;;;;;;1.27;0.45;;;;;;;;;;5019330;28;20050;-74
2021/05/26 11:08:41;;;;;;;0.88;0.43;;;;;;;;;;5021214;28;20053;-73
2021/05/26 11:11:23;;;;;;;0.90;0.45;;;;;;;;;;5019660;28;20103;-75
2021/05/26 11:14:05;;;;;;;2.70;0.40;;;;;;;;;;5018536;28;20046;-73
2021/05/26 11:16:45;;;;;;;0.40;0.40;;;;;;;;;;5014081;28;20340;-72
2021/05/26 11:19:13;;;;;;;0.93;0.50;;;;;;;;;;5010329;28;20116;-74
2021/05/26 11:21:41;;;;;;;1.90;0.50;;;;;;;;;;5010192;28;20053;-75
2021/05/26 11:24:08;;;;;;;0.57;0.32;;;;;;;;;;5026798;28;20050;-75
2021/05/26 11:26:37;;;;;;;1.17;0.50;;;;;;;;;;5006714;28;20065;-75
2021/05/26 11:29:04;;;;;;;1.40;0.50;;;;;;;;;;4989584;28;20133;-74
2021/05/26 11:31:31;;;;;;;1.33;0.50;;;;;;;;;;4998713;28;20097;-75
2021/05/26 11:33:59;;;;;;;0.77;0.50;;;;;;;;;;4989494;28;20107;-75
2021/05/26 11:36:44;;;;;;;3.38;0.60;;;;;;;;;;4994124;28;20089;-75
2021/05/26 11:39:26;;;;;;;0.88;0.75;;;;;;;;;;4990402;28;20086;-74
2021/05/26 11:42:11;;;;;;;0.75;0.75;;;;;;;;;;5001116;28;20069;-71
2021/05/26 11:44:42;;;;;;;1.42;0.98;;;;;;;;;;4993589;28;20112;-75
2021/05/26 11:47:09;;;;;;;1.60;0.73;;;;;;;;;;4994683;28;20054;-75
2021/05/26 11:49:39;;;;;;;1.27;0.73;;;;;;;;;;4994209;28;20062;-74
2021/05/26 11:52:08;;;;;;;3.00;1.13;;;;;;;;;;5000815;28;20312;-74
2021/05/26 11:54:35;;;;;;;1.00;0.60;;;;;;;;;;4993975;28;20105;-74
2021/05/26 11:57:07;;;;;;;1.27;0.73;;;;;;;;;;5012903;28;20496;-76
2021/05/26 11:59:55;;;;;;;1.15;0.60;;;;;;;;;;5005117;28;20045;-78
2021/05/26 12:02:21;;;;;;;0.80;0.70;;;;;;;;;;5016073;28;20053;-72
2021/05/26 12:04:48;;;;;;;2.78;0.60;;;;;;;;;;5021112;28;20531;-72
2021/05/26 12:07:27;;;;;;;2.22;0.73;;;;;;;;;;5007433;28;20053;-77
2021/05/26 12:09:59;;;;;;;0.82;0.55;;;;;;;;;;5019172;28;20057;-73
2021/05/26 12:13:02;;;;;;;1.45;0.70;;;;;;;;;;5011383;28;20108;-75
2021/05/26 12:15:42;;;;;;;0.90;0.70;;;;;;;;;;4969180;28;20137;-73
2021/05/26 12:18:09;;;;;;;0.73;0.50;;;;;;;;;;5022073;28;21020;-73
2021/05/26 12:20:50;;;;;;;0.93;0.60;;;;;;;;;;5013351;28;20049;-73
2021/05/26 12:24:24;;;;;;;0.85;0.43;;;;;;;;;;5007365;28;20077;-75
2021/05/26 12:27:37;;;;;;;0.80;0.40;;;;;;;;;;5017230;28;20061;-73
2021/05/26 12:30:21;;;;;;;1.30;0.50;;;;;;;;;;5012273;28;20505;-70
2021/05/26 12:32:52;;;;;;;1.05;0.50;;;;;;;;;;5020627;28;20064;-77
2021/05/26 12:35:58;;;;;;;1.02;0.40;;;;;;;;;;5007413;28;20077;-81
2021/05/26 12:38:25;;;;;;;1.20;0.85;;;;;;;;;;5015717;28;20050;-75
2021/05/26 12:40:52;;;;;;;1.80;0.70;;;;;;;;;;5018811;28;20050;-72
2021/05/26 12:43:26;;;;;;;0.82;0.60;;;;;;;;;;5021498;28;20085;-71
2021/05/26 12:45:53;;;;;;;0.95;0.75;;;;;;;;;;5024100;28;20052;-73
2021/05/26 12:48:20;;;;;;;2.28;0.55;;;;;;;;;;4993229;28;20452;-73
2021/05/26 12:50:51;;;;;;;0.85;0.60;;;;;;;;;;5007008;28;20075;-73
2021/05/26 12:53:46;;;;;;;;;;;;;;;;;;;;;
2021/05/26 12:56:31;;;;;;;;;;;;;;;;;;;;;
2021/05/26 12:58:58;;;;;;;2.50;0.50;;;;;;;;;;5026111;28;19925;-74
2021/05/26 13:01:26;;;;;;;1.45;0.52;;;;;;;;;;5037087;28;20053;-72
2021/05/26 13:03:52;;;;;;;1.52;0.60;;;;;;;;;;5020273;28;20081;-73
2021/05/26 13:06:20;;;;;;;0.95;0.40;;;;;;;;;;5017317;28;20427;-73
2021/05/26 13:09:00;;;;;;;2.00;0.70;;;;;;;;;;5018732;28;20050;-73
2021/05/26 13:11:42;;;;;;;1.33;0.65;;;;;;;;;;5010517;28;20110;-73
2021/05/26 13:14:09;;;;;;;1.15;0.47;;;;;;;;;;5010646;28;20054;-72
2021/05/26 13:16:37;;;;;;;2.72;0.70;;;;;;;;;;5010085;28;20107;-74
2021/05/26 13:19:04;;;;;;;2.00;0.70;;;;;;;;;;5026741;28;20493;-74
2021/05/26 13:21:31;;;;;;;2.22;1.00;;;;;;;;;;4997975;28;20050;-73
2021/05/26 13:23:58;;;;;;;2.85;1.50;;;;;;;;;;5011645;28;20050;-75
2021/05/26 13:26:24;;;;;;;7.85;2.85;;;;;;;;;;5011421;28;20046;-75
2021/05/26 13:29:04;;;;;;;2.90;1.40;;;;;;;;;;5011550;28;20046;-76
2021/05/26 13:31:31;;;;;;;6.15;3.08;;;;;;;;;;4996572;28;20088;-74
2021/05/26 13:33:58;;;;;;;3.92;1.80;;;;;;;;;;5010820;28;20050;-73
2021/05/26 13:36:30;;;;;;;5.00;1.92;;;;;;;;;;5010132;28;20505;-75
2021/05/26 13:39:01;;;;;;;6.13;2.50;;;;;;;;;;5012325;28;20056;-72
2021/05/26 13:41:27;;;;;;;4.63;2.67;;;;;;;;;;4999805;28;20050;-72
2021/05/26 13:43:54;;;;;;;6.53;2.90;;;;;;;;;;4996392;28;20050;-73
2021/05/26 13:46:25;;;;;;;5.88;2.58;;;;;;;;;;5010890;28;20128;-72
2021/05/26 13:48:51;;;;;;;5.22;2.72;;;;;;;;;;5015363;28;20428;-73
2021/05/26 13:51:18;;;;;;;1.60;1.25;;;;;;;;;;5013412;28;20057;-72
2021/05/26 13:53:44;;;;;;;2.75;1.20;;;;;;;;;;4996120;28;20090;-75
2021/05/26 13:56:11;;;;;;;5.93;3.40;;;;;;;;;;5001175;28;20501;-75
2021/05/26 13:58:40;;;;;;;3.78;1.20;;;;;;;;;;5014514;28;20089;-71
2021/05/26 14:01:06;;;;;;;1.77;1.20;;;;;;;;;;5014916;28;20477;-72
2021/05/26 14:03:33;;;;;;;1.63;0.63;;;;;;;;;;4995559;28;20050;-72
2021/05/26 14:05:59;;;;;;;1.70;0.80;;;;;;;;;;4999746;28;20054;-74
2021/05/26 14:08:26;;;;;;;3.72;1.13;;;;;;;;;;4995652;28;20085;-76
2021/05/26 14:10:57;;;;;;;1.17;0.60;;;;;;;;;;4999627;28;20441;-75
2021/05/26 14:13:52;;;;;;;0.88;0.50;;;;;;;;;;5006103;28;20081;-75
2021/05/26 14:16:32;;;;;;;1.13;0.70;;;;;;;;;;5008683;28;20447;-75
2021/05/26 14:19:03;;;;;;;1.30;0.60;;;;;;;;;;5031102;28;20053;-74
2021/05/26 14:21:34;;;;;;;4.15;0.77;;;;;;;;;;5004259;28;20416;-73
2021/05/26 14:24:01;;;;;;;1.67;0.50;;;;;;;;;;5009869;28;20064;-74
2021/05/26 14:26:32;;;;;;;3.22;0.70;;;;;;;;;;4997139;28;20123;-75
2021/05/26 14:29:21;;;;;;;2.17;0.60;;;;;;;;;;5006721;23;20531;-74
2021/05/26 14:31:59;;;;;;;6.20;0.80;;;;;;;;;;4970338;28;20047;-76
2021/05/26 14:34:40;;;;;;;0.98;0.50;;;;;;;;;;4967223;28;20084;-73
2021/05/26 14:37:12;;;;;;;0.70;0.70;;;;;;;;;;4967545;28;20138;-73
2021/05/26 14:39:41;;;;;;;1.98;0.80;;;;;;;;;;4971555;28;20047;-70
2021/05/26 14:42:08;;;;;;;1.88;0.60;;;;;;;;;;4974289;28;20054;-74
2021/05/26 14:44:35;;;;;;;1.48;0.60;;;;;;;;;;4972112;28;20488;-69
2021/05/26 14:47:01;;;;;;;2.40;0.85;;;;;;;;;;4970800;28;20140;-69
2021/05/26 14:49:28;;;;;;;2.67;0.90;;;;;;;;;;4970444;28;20054;-72
2021/05/26 14:51:55;;;;;;;4.45;1.27;;;;;;;;;;4970505;28;20070;-70
2021/05/26 14:54:23;;;;;;;2.40;1.13;;;;;;;;;;4971810;28;20461;-71
2021/05/26 14:56:50;;;;;;;4.72;1.55;;;;;;;;;;4968257;28;20535;-71
2021/05/26 14:59:17;;;;;;;2.15;1.30;;;;;;;;;;4970938;28;20102;-71
2021/05/26 15:01:43;;;;;;;1.10;0.70;;;;;;;;;;4966254;28;20299;-77
2021/05/26 15:04:12;;;;;;;2.05;0.95;;;;;;;;;;4971989;28;20113;-74